createdAt,value
2023-03-26T00:00:33.797Z,0.00
2023-03-26T00:01:34.036Z,0.00
2023-03-26T00:02:33.837Z,0.00
2023-03-26T00:03:33.780Z,0.00
2023-03-26T00:04:33.805Z,0.00
2023-03-26T00:05:33.788Z,0.00
2023-03-26T00:06:33.732Z,0.00
2023-03-26T00:07:33.723Z,0.00
2023-03-26T00:08:34.692Z,0.00
2023-03-26T00:09:33.712Z,0.00
2023-03-26T00:10:33.666Z,0.00
2023-03-26T00:11:34.694Z,0.00
2023-03-26T00:12:33.657Z,0.00
2023-03-26T00:13:33.618Z,0.00
2023-03-26T00:14:33.693Z,0.00
2023-03-26T00:15:33.633Z,0.00
2023-03-26T00:16:34.642Z,0.00
2023-03-26T00:17:33.609Z,0.00
2023-03-26T00:18:34.588Z,0.00
2023-03-26T00:19:33.637Z,0.00
2023-03-26T00:20:33.550Z,0.00
2023-03-26T00:21:33.549Z,0.00
2023-03-26T00:22:33.554Z,0.00
2023-03-26T00:23:34.526Z,0.00
2023-03-26T00:24:33.550Z,0.00
2023-03-26T00:25:33.534Z,0.00
2023-03-26T00:26:33.530Z,0.00
2023-03-26T00:27:34.485Z,0.00
2023-03-26T00:28:33.464Z,0.00
2023-03-26T00:29:34.508Z,0.00
2023-03-26T00:30:33.530Z,0.00
2023-03-26T00:31:34.472Z,0.00
2023-03-26T00:32:33.436Z,0.00
2023-03-26T00:33:33.431Z,0.00
2023-03-26T00:34:34.438Z,0.00
2023-03-26T00:35:33.445Z,0.00
2023-03-26T00:36:33.430Z,0.00
2023-03-26T00:37:33.368Z,0.00
2023-03-26T00:38:33.382Z,0.00
2023-03-26T00:39:34.372Z,0.00
2023-03-26T00:40:33.365Z,0.00
2023-03-26T00:41:33.351Z,0.00
2023-03-26T00:42:33.385Z,0.00
2023-03-26T00:43:34.313Z,0.00
2023-03-26T00:44:33.301Z,0.00
2023-03-26T00:45:33.277Z,0.00
2023-03-26T00:46:34.333Z,0.00
2023-03-26T00:47:33.285Z,0.00
2023-03-26T00:48:44.325Z,0.00
2023-03-26T00:49:34.252Z,0.00
2023-03-26T00:50:33.244Z,0.00
2023-03-26T00:51:33.274Z,0.00
2023-03-26T00:52:33.241Z,0.00
2023-03-26T00:53:33.205Z,0.00
2023-03-26T00:54:33.196Z,0.00
2023-03-26T00:55:33.179Z,0.00
2023-03-26T00:56:33.159Z,0.00
2023-03-26T00:57:35.853Z,0.00
2023-03-26T00:58:33.166Z,0.00
2023-03-26T00:59:33.176Z,0.00
2023-03-26T01:00:33.189Z,0.00
2023-03-26T01:01:33.214Z,0.00
2023-03-26T01:02:33.222Z,0.00
2023-03-26T01:03:33.247Z,0.00
2023-03-26T01:04:33.263Z,0.00
2023-03-26T01:05:33.105Z,0.00
2023-03-26T01:06:33.083Z,0.00
2023-03-26T01:07:33.113Z,0.00
2023-03-26T01:08:33.047Z,0.00
2023-03-26T01:09:34.060Z,0.00
2023-03-26T01:10:33.052Z,0.00
2023-03-26T01:11:33.031Z,0.00
2023-03-26T01:12:32.978Z,0.00
2023-03-26T01:13:32.967Z,0.00
2023-03-26T01:14:33.996Z,0.00
2023-03-26T01:15:33.000Z,0.00
2023-03-26T01:16:32.984Z,0.00
2023-03-26T01:17:32.927Z,0.00
2023-03-26T01:18:33.952Z,0.00
2023-03-26T01:19:32.999Z,0.00
2023-03-26T01:20:32.906Z,0.00
2023-03-26T01:21:32.900Z,0.00
2023-03-26T01:22:32.914Z,0.00
2023-03-26T01:23:32.915Z,0.00
2023-03-26T01:24:32.870Z,0.00
2023-03-26T01:25:32.836Z,0.00
2023-03-26T01:26:32.836Z,0.00
2023-03-26T01:27:32.912Z,0.00
2023-03-26T01:28:32.821Z,0.00
2023-03-26T01:29:32.808Z,0.00
2023-03-26T01:30:32.799Z,0.00
2023-03-26T01:31:33.788Z,0.00
2023-03-26T01:32:32.931Z,0.00
2023-03-26T01:33:32.872Z,0.00
2023-03-26T01:34:33.765Z,0.00
2023-03-26T01:35:33.783Z,0.00
2023-03-26T01:36:33.718Z,0.00
2023-03-26T01:37:32.744Z,0.00
2023-03-26T01:38:32.720Z,0.00
2023-03-26T01:39:32.738Z,0.00
2023-03-26T01:40:32.721Z,0.00
2023-03-26T01:41:32.683Z,0.00
2023-03-26T01:42:32.653Z,0.00
2023-03-26T01:43:32.751Z,0.00
2023-03-26T01:44:32.663Z,0.00
2023-03-26T01:45:32.664Z,0.00
2023-03-26T01:46:32.616Z,0.00
2023-03-26T01:47:32.634Z,0.00
2023-03-26T01:48:32.605Z,0.00
2023-03-26T01:49:32.594Z,0.00
2023-03-26T01:50:32.617Z,0.00
2023-03-26T01:51:32.559Z,0.00
2023-03-26T01:52:32.548Z,0.00
2023-03-26T01:53:32.550Z,0.00
2023-03-26T01:54:40.364Z,0.00
2023-03-26T01:55:32.519Z,0.00
2023-03-26T01:56:32.552Z,0.00
2023-03-26T01:57:33.480Z,0.00
2023-03-26T01:58:32.482Z,0.00
2023-03-26T01:59:33.538Z,0.00
2023-03-26T02:00:32.462Z,0.00
2023-03-26T02:01:32.524Z,0.00
2023-03-26T02:02:33.507Z,0.00
2023-03-26T02:03:33.458Z,0.00
2023-03-26T02:04:32.409Z,0.00
2023-03-26T02:05:32.432Z,0.00
2023-03-26T02:06:32.379Z,0.00
2023-03-26T02:07:33.406Z,0.00
2023-03-26T02:08:32.356Z,0.00
2023-03-26T02:09:32.349Z,0.00
2023-03-26T02:10:32.428Z,0.00
2023-03-26T02:11:35.997Z,0.00
2023-03-26T02:12:32.328Z,0.00
2023-03-26T02:13:32.337Z,0.00
2023-03-26T02:14:32.292Z,0.00
2023-03-26T02:15:33.327Z,0.00
2023-03-26T02:16:32.383Z,0.00
2023-03-26T02:17:32.268Z,0.00
2023-03-26T02:18:32.260Z,0.00
2023-03-26T02:19:32.269Z,0.00
2023-03-26T02:20:33.249Z,0.00
2023-03-26T02:21:32.220Z,0.00
2023-03-26T02:22:32.226Z,0.00
2023-03-26T02:23:32.235Z,0.00
2023-03-26T02:24:32.196Z,0.00
2023-03-26T02:25:32.200Z,0.00
2023-03-26T02:26:32.165Z,0.00
2023-03-26T02:27:32.145Z,0.00
2023-03-26T02:28:32.137Z,0.00
2023-03-26T02:29:32.164Z,0.00
2023-03-26T02:30:32.133Z,0.00
2023-03-26T02:31:32.151Z,0.00
2023-03-26T02:32:32.123Z,0.00
2023-03-26T02:33:32.086Z,0.00
2023-03-26T02:34:32.056Z,0.00
2023-03-26T02:35:32.206Z,0.00
2023-03-26T02:36:32.097Z,0.00
2023-03-26T02:37:32.081Z,0.00
2023-03-26T02:38:32.085Z,0.00
2023-03-26T02:39:32.019Z,0.00
2023-03-26T02:40:32.013Z,0.00
2023-03-26T02:41:31.999Z,0.00
2023-03-26T02:42:32.025Z,0.00
2023-03-26T02:43:31.974Z,0.00
2023-03-26T02:44:32.019Z,0.00
2023-03-26T02:45:31.985Z,0.00
2023-03-26T02:46:31.967Z,0.00
2023-03-26T02:47:32.976Z,0.00
2023-03-26T02:48:31.931Z,0.00
2023-03-26T02:49:31.945Z,0.00
2023-03-26T02:50:31.921Z,0.00
2023-03-26T02:51:31.905Z,0.00
2023-03-26T02:52:31.878Z,0.00
2023-03-26T02:53:31.871Z,0.00
2023-03-26T02:54:31.886Z,0.00
2023-03-26T02:55:31.837Z,0.00
2023-03-26T02:56:32.851Z,0.00
2023-03-26T02:57:32.853Z,0.00
2023-03-26T02:58:31.842Z,0.00
2023-03-26T02:59:31.798Z,0.00
2023-03-26T03:00:31.817Z,0.00
2023-03-26T03:01:32.820Z,0.00
2023-03-26T03:02:31.809Z,0.00
2023-03-26T03:03:32.789Z,0.00
2023-03-26T03:04:31.753Z,0.00
2023-03-26T03:05:32.761Z,0.00
2023-03-26T03:06:32.726Z,0.00
2023-03-26T03:07:31.702Z,0.00
2023-03-26T03:08:31.712Z,0.00
2023-03-26T03:09:31.696Z,0.00
2023-03-26T03:10:31.768Z,0.00
2023-03-26T03:11:32.654Z,0.00
2023-03-26T03:12:32.655Z,0.00
2023-03-26T03:13:31.638Z,0.00
2023-03-26T03:14:31.685Z,0.00
2023-03-26T03:15:31.605Z,0.00
2023-03-26T03:16:31.685Z,0.00
2023-03-26T03:17:31.638Z,0.00
2023-03-26T03:18:31.586Z,0.00
2023-03-26T03:19:31.588Z,0.00
2023-03-26T03:20:32.569Z,0.00
2023-03-26T03:21:31.560Z,0.00
2023-03-26T03:22:31.565Z,0.00
2023-03-26T03:23:31.573Z,0.00
2023-03-26T03:24:31.562Z,0.00
2023-03-26T03:25:31.517Z,0.00
2023-03-26T03:26:31.498Z,0.00
2023-03-26T03:27:32.492Z,0.00
2023-03-26T03:28:31.516Z,0.00
2023-03-26T03:29:31.508Z,0.00
2023-03-26T03:30:31.572Z,0.00
2023-03-26T03:31:31.453Z,0.00
2023-03-26T03:32:31.482Z,0.00
2023-03-26T03:33:31.432Z,0.00
2023-03-26T03:34:31.426Z,0.00
2023-03-26T03:35:31.504Z,0.00
2023-03-26T03:36:32.398Z,0.00
2023-03-26T03:37:31.386Z,0.00
2023-03-26T03:38:31.488Z,0.00
2023-03-26T03:39:31.360Z,0.00
2023-03-26T03:40:31.407Z,0.00
2023-03-26T03:41:31.362Z,0.00
2023-03-26T03:42:32.330Z,0.00
2023-03-26T03:43:31.311Z,0.00
2023-03-26T03:44:31.314Z,0.00
2023-03-26T03:45:31.320Z,0.00
2023-03-26T03:46:32.338Z,0.00
2023-03-26T03:47:31.277Z,0.00
2023-03-26T03:48:32.254Z,0.00
2023-03-26T03:49:31.245Z,0.00
2023-03-26T03:50:33.130Z,0.00
2023-03-26T03:51:31.259Z,0.00
2023-03-26T03:52:32.208Z,0.00
2023-03-26T03:53:31.207Z,0.00
2023-03-26T03:54:31.179Z,0.00
2023-03-26T03:55:31.172Z,0.00
2023-03-26T03:56:31.216Z,0.00
2023-03-26T03:57:31.184Z,0.00
2023-03-26T03:58:31.214Z,0.00
2023-03-26T03:59:31.170Z,0.00
2023-03-26T04:00:31.131Z,0.00
2023-03-26T04:01:31.132Z,0.00
2023-03-26T04:02:31.148Z,0.00
2023-03-26T04:03:33.083Z,0.00
2023-03-26T04:04:31.182Z,0.00
2023-03-26T04:05:31.086Z,0.00
2023-03-26T04:06:31.068Z,0.00
2023-03-26T04:07:32.068Z,0.00
2023-03-26T04:08:31.043Z,0.00
2023-03-26T04:09:32.043Z,0.00
2023-03-26T04:10:31.010Z,0.00
2023-03-26T04:11:32.020Z,0.00
2023-03-26T04:12:30.991Z,0.00
2023-03-26T04:13:30.995Z,0.00
2023-03-26T04:14:30.993Z,0.00
2023-03-26T04:15:31.962Z,0.00
2023-03-26T04:16:31.972Z,0.00
2023-03-26T04:17:31.087Z,0.00
2023-03-26T04:18:30.943Z,0.00
2023-03-26T04:19:30.938Z,0.00
2023-03-26T04:20:30.934Z,0.00
2023-03-26T04:21:31.890Z,0.00
2023-03-26T04:22:30.921Z,0.00
2023-03-26T04:23:30.886Z,0.00
2023-03-26T04:24:31.705Z,0.00
2023-03-26T04:25:30.898Z,0.00
2023-03-26T04:26:31.845Z,0.00
2023-03-26T04:27:30.856Z,0.00
2023-03-26T04:28:30.816Z,0.00
2023-03-26T04:29:30.808Z,0.00
2023-03-26T04:30:30.800Z,0.00
2023-03-26T04:31:30.890Z,0.00
2023-03-26T04:32:30.790Z,0.00
2023-03-26T04:33:30.748Z,0.00
2023-03-26T04:34:30.771Z,0.00
2023-03-26T04:35:30.822Z,0.00
2023-03-26T04:36:30.755Z,0.00
2023-03-26T04:37:30.744Z,0.00
2023-03-26T04:38:31.707Z,0.00
2023-03-26T04:39:30.738Z,0.00
2023-03-26T04:40:31.716Z,0.00
2023-03-26T04:41:31.677Z,0.00
2023-03-26T04:42:31.699Z,0.00
2023-03-26T04:43:30.664Z,0.00
2023-03-26T04:44:30.680Z,0.00
2023-03-26T04:45:30.682Z,0.00
2023-03-26T04:46:30.640Z,0.00
2023-03-26T04:47:30.622Z,0.00
2023-03-26T04:48:31.610Z,0.00
2023-03-26T04:49:31.584Z,0.00
2023-03-26T04:50:31.628Z,0.00
2023-03-26T04:51:30.610Z,0.00
2023-03-26T04:52:30.559Z,0.00
2023-03-26T04:53:30.541Z,0.00
2023-03-26T04:54:30.529Z,0.00
2023-03-26T04:55:30.541Z,0.00
2023-03-26T04:56:30.682Z,0.00
2023-03-26T04:57:30.502Z,0.00
2023-03-26T04:58:30.491Z,0.00
2023-03-26T04:59:30.490Z,0.00
2023-03-26T05:00:30.478Z,0.00
2023-03-26T05:01:31.492Z,0.00
2023-03-26T05:02:30.513Z,0.00
2023-03-26T05:03:30.419Z,0.00
2023-03-26T05:04:30.458Z,0.00
2023-03-26T05:05:30.408Z,0.00
2023-03-26T05:06:30.470Z,0.00
2023-03-26T05:07:30.383Z,0.00
2023-03-26T05:08:30.461Z,0.00
2023-03-26T05:09:30.361Z,0.00
2023-03-26T05:10:30.356Z,0.00
2023-03-26T05:11:30.330Z,0.00
2023-03-26T05:12:30.366Z,0.00
2023-03-26T05:13:30.319Z,0.00
2023-03-26T05:14:30.307Z,0.00
2023-03-26T05:15:30.306Z,0.00
2023-03-26T05:16:30.345Z,0.00
2023-03-26T05:17:31.285Z,0.00
2023-03-26T05:18:31.240Z,0.00
2023-03-26T05:19:30.287Z,0.00
2023-03-26T05:20:30.256Z,0.00
2023-03-26T05:21:31.231Z,0.00
2023-03-26T05:22:30.238Z,0.00
2023-03-26T05:23:30.228Z,0.00
2023-03-26T05:24:30.186Z,0.00
2023-03-26T05:25:31.208Z,0.00
2023-03-26T05:26:31.173Z,0.00
2023-03-26T05:27:30.198Z,0.00
2023-03-26T05:28:30.151Z,0.00
2023-03-26T05:29:30.144Z,0.00
2023-03-26T05:30:30.154Z,0.00
2023-03-26T05:31:30.113Z,0.00
2023-03-26T05:32:30.217Z,0.00
2023-03-26T05:33:30.243Z,0.00
2023-03-26T05:34:31.100Z,0.00
2023-03-26T05:35:31.113Z,0.00
2023-03-26T05:36:30.094Z,0.00
2023-03-26T05:37:31.129Z,0.00
2023-03-26T05:38:30.159Z,0.00
2023-03-26T05:39:30.024Z,0.00
2023-03-26T05:40:31.018Z,0.00
2023-03-26T05:41:30.011Z,0.00
2023-03-26T05:42:30.044Z,0.00
2023-03-26T05:43:30.004Z,0.00
2023-03-26T05:44:30.010Z,0.00
2023-03-26T05:45:29.993Z,0.00
2023-03-26T05:46:29.993Z,0.00
2023-03-26T05:47:29.966Z,0.00
2023-03-26T05:48:29.932Z,5.62
2023-03-26T05:49:30.702Z,5.62
2023-03-26T05:50:29.973Z,5.62
2023-03-26T05:51:29.893Z,5.62
2023-03-26T05:52:29.903Z,5.62
2023-03-26T05:53:29.856Z,5.62
2023-03-26T05:54:29.882Z,5.62
2023-03-26T05:55:29.876Z,5.62
2023-03-26T05:56:30.914Z,5.62
2023-03-26T05:57:29.876Z,5.62
2023-03-26T05:58:29.821Z,5.62
2023-03-26T05:59:29.802Z,5.62
2023-03-26T06:00:29.793Z,5.62
2023-03-26T06:01:29.815Z,5.62
2023-03-26T06:02:29.797Z,5.62
2023-03-26T06:03:29.878Z,5.62
2023-03-26T06:04:30.931Z,5.62
2023-03-26T06:05:29.740Z,5.62
2023-03-26T06:06:33.086Z,5.62
2023-03-26T06:07:29.722Z,5.62
2023-03-26T06:08:29.728Z,5.62
2023-03-26T06:09:30.741Z,5.62
2023-03-26T06:10:29.724Z,5.62
2023-03-26T06:11:29.704Z,5.62
2023-03-26T06:12:29.659Z,5.62
2023-03-26T06:13:29.726Z,5.62
2023-03-26T06:14:30.653Z,5.62
2023-03-26T06:15:29.697Z,5.62
2023-03-26T06:16:29.691Z,5.62
2023-03-26T06:17:30.616Z,5.62
2023-03-26T06:18:30.652Z,5.62
2023-03-26T06:19:29.608Z,5.62
2023-03-26T06:20:29.570Z,5.62
2023-03-26T06:21:30.546Z,5.62
2023-03-26T06:22:30.574Z,5.62
2023-03-26T06:23:29.586Z,5.62
2023-03-26T06:24:29.529Z,5.62
2023-03-26T06:25:30.524Z,5.62
2023-03-26T06:26:29.576Z,5.62
2023-03-26T06:27:29.494Z,5.62
2023-03-26T06:28:29.519Z,5.62
2023-03-26T06:29:29.525Z,5.62
2023-03-26T06:30:30.460Z,5.62
2023-03-26T06:31:29.491Z,5.62
2023-03-26T06:32:29.458Z,5.62
2023-03-26T06:33:29.434Z,5.62
2023-03-26T06:34:29.490Z,11.25
2023-03-26T06:35:29.414Z,11.25
2023-03-26T06:36:30.395Z,11.25
2023-03-26T06:37:29.380Z,11.25
2023-03-26T06:38:29.384Z,11.25
2023-03-26T06:39:29.395Z,11.25
2023-03-26T06:40:30.379Z,11.25
2023-03-26T06:41:29.328Z,11.25
2023-03-26T06:43:06.414Z,11.25
2023-03-26T06:43:30.326Z,11.25
2023-03-26T06:44:29.334Z,11.25
2023-03-26T06:45:29.318Z,11.25
2023-03-26T06:46:29.374Z,11.25
2023-03-26T06:47:30.300Z,11.25
2023-03-26T06:48:29.278Z,11.25
2023-03-26T06:49:30.260Z,11.25
2023-03-26T06:50:29.258Z,11.25
2023-03-26T06:51:29.254Z,11.25
2023-03-26T06:52:29.274Z,11.25
2023-03-26T06:53:29.219Z,11.25
2023-03-26T06:54:29.214Z,11.25
2023-03-26T06:55:29.184Z,11.25
2023-03-26T06:56:29.213Z,11.25
2023-03-26T06:57:29.203Z,11.25
2023-03-26T06:58:30.194Z,11.25
2023-03-26T06:59:29.154Z,16.88
2023-03-26T07:00:29.140Z,16.88
2023-03-26T07:01:30.254Z,16.88
2023-03-26T07:02:29.174Z,16.88
2023-03-26T07:03:29.093Z,16.88
2023-03-26T07:04:29.159Z,16.88
2023-03-26T07:05:30.072Z,16.88
2023-03-26T07:06:30.093Z,16.88
2023-03-26T07:07:29.071Z,16.88
2023-03-26T07:08:29.074Z,16.88
2023-03-26T07:09:29.029Z,16.88
2023-03-26T07:10:29.050Z,16.88
2023-03-26T07:11:29.025Z,16.88
2023-03-26T07:12:29.003Z,16.88
2023-03-26T07:13:30.051Z,16.88
2023-03-26T07:14:28.983Z,16.88
2023-03-26T07:15:29.023Z,16.88
2023-03-26T07:16:28.987Z,16.88
2023-03-26T07:17:29.003Z,22.50
2023-03-26T07:18:36.057Z,22.50
2023-03-26T07:19:29.038Z,16.88
2023-03-26T07:20:28.947Z,16.88
2023-03-26T07:21:28.919Z,16.88
2023-03-26T07:22:28.955Z,16.88
2023-03-26T07:23:28.878Z,16.88
2023-03-26T07:24:28.891Z,16.88
2023-03-26T07:25:28.870Z,16.88
2023-03-26T07:26:28.871Z,16.88
2023-03-26T07:27:28.919Z,16.88
2023-03-26T07:28:28.836Z,16.88
2023-03-26T07:29:28.817Z,16.88
2023-03-26T07:30:28.890Z,16.88
2023-03-26T07:31:28.891Z,16.88
2023-03-26T07:32:28.863Z,16.88
2023-03-26T07:33:28.785Z,16.88
2023-03-26T07:34:28.787Z,22.50
2023-03-26T07:35:28.785Z,22.50
2023-03-26T07:36:28.773Z,22.50
2023-03-26T07:37:28.747Z,22.50
2023-03-26T07:38:28.759Z,22.50
2023-03-26T07:39:28.713Z,22.50
2023-03-26T07:40:28.764Z,22.50
2023-03-26T07:41:28.701Z,28.12
2023-03-26T07:42:28.714Z,28.12
2023-03-26T07:43:28.730Z,28.12
2023-03-26T07:44:29.663Z,28.12
2023-03-26T07:45:28.702Z,33.75
2023-03-26T07:46:28.662Z,33.75
2023-03-26T07:47:28.643Z,45.00
2023-03-26T07:48:28.621Z,33.75
2023-03-26T07:49:28.723Z,33.75
2023-03-26T07:50:28.587Z,33.75
2023-03-26T07:51:28.686Z,28.12
2023-03-26T07:52:29.579Z,28.12
2023-03-26T07:53:29.591Z,28.12
2023-03-26T07:54:28.546Z,33.75
2023-03-26T07:55:28.561Z,33.75
2023-03-26T07:56:28.558Z,33.75
2023-03-26T07:57:28.600Z,28.12
2023-03-26T07:58:28.530Z,28.12
2023-03-26T07:59:29.503Z,28.12
2023-03-26T08:00:28.501Z,28.12
2023-03-26T08:01:29.464Z,28.12
2023-03-26T08:02:28.522Z,22.50
2023-03-26T08:03:28.559Z,22.50
2023-03-26T08:04:28.528Z,22.50
2023-03-26T08:05:28.429Z,22.50
2023-03-26T08:06:28.426Z,22.50
2023-03-26T08:07:28.441Z,28.12
2023-03-26T08:08:28.446Z,28.12
2023-03-26T08:09:29.369Z,28.12
2023-03-26T08:10:28.375Z,28.12
2023-03-26T08:11:28.378Z,28.12
2023-03-26T08:12:28.374Z,28.12
2023-03-26T08:13:28.319Z,28.12
2023-03-26T08:14:28.344Z,28.12
2023-03-26T08:15:29.447Z,28.12
2023-03-26T08:16:29.297Z,28.12
2023-03-26T08:17:29.931Z,28.12
2023-03-26T08:18:28.355Z,28.12
2023-03-26T08:19:28.266Z,28.12
2023-03-26T08:20:28.300Z,28.12
2023-03-26T08:21:28.250Z,28.12
2023-03-26T08:22:28.231Z,28.12
2023-03-26T08:23:29.257Z,28.12
2023-03-26T08:24:28.208Z,33.75
2023-03-26T08:25:28.210Z,28.12
2023-03-26T08:26:29.185Z,28.12
2023-03-26T08:27:28.229Z,28.12
2023-03-26T08:28:28.210Z,28.12
2023-03-26T08:29:28.178Z,28.12
2023-03-26T08:30:28.139Z,28.12
2023-03-26T08:31:28.186Z,28.12
2023-03-26T08:32:28.142Z,28.12
2023-03-26T08:33:28.108Z,28.12
2023-03-26T08:34:29.163Z,28.12
2023-03-26T08:35:28.173Z,28.12
2023-03-26T08:36:29.087Z,28.12
2023-03-26T08:37:28.099Z,28.12
2023-03-26T08:38:28.077Z,28.12
2023-03-26T08:39:28.049Z,28.12
2023-03-26T08:40:28.100Z,28.12
2023-03-26T08:41:28.052Z,33.75
2023-03-26T08:42:29.026Z,33.75
2023-03-26T08:43:28.014Z,33.75
2023-03-26T08:44:28.000Z,33.75
2023-03-26T08:45:27.984Z,33.75
2023-03-26T08:46:28.081Z,33.75
2023-03-26T08:47:28.018Z,33.75
2023-03-26T08:48:27.948Z,33.75
2023-03-26T08:49:29.688Z,28.12
2023-03-26T08:50:27.999Z,28.12
2023-03-26T08:51:28.936Z,28.12
2023-03-26T08:52:27.923Z,28.12
2023-03-26T08:53:28.901Z,28.12
2023-03-26T08:54:27.933Z,28.12
2023-03-26T08:55:27.876Z,28.12
2023-03-26T08:56:27.902Z,28.12
2023-03-26T08:57:28.870Z,28.12
2023-03-26T08:58:27.884Z,28.12
2023-03-26T08:59:28.817Z,28.12
2023-03-26T09:00:27.829Z,28.12
2023-03-26T09:01:27.910Z,33.75
2023-03-26T09:02:27.839Z,39.38
2023-03-26T09:03:27.876Z,39.38
2023-03-26T09:04:27.798Z,39.38
2023-03-26T09:05:27.807Z,39.38
2023-03-26T09:06:27.786Z,33.75
2023-03-26T09:07:27.806Z,33.75
2023-03-26T09:08:30.342Z,33.75
2023-03-26T09:09:27.734Z,33.75
2023-03-26T09:10:28.793Z,39.38
2023-03-26T09:11:27.702Z,39.38
2023-03-26T09:12:27.690Z,39.38
2023-03-26T09:13:27.686Z,45.00
2023-03-26T09:14:27.788Z,33.75
2023-03-26T09:15:27.651Z,33.75
2023-03-26T09:16:27.719Z,33.75
2023-03-26T09:17:27.642Z,33.75
2023-03-26T09:18:27.618Z,33.75
2023-03-26T09:19:27.617Z,33.75
2023-03-26T09:20:27.642Z,33.75
2023-03-26T09:21:27.644Z,33.75
2023-03-26T09:22:27.593Z,33.75
2023-03-26T09:23:27.575Z,33.75
2023-03-26T09:24:27.634Z,33.75
2023-03-26T09:25:27.556Z,33.75
2023-03-26T09:26:28.548Z,33.75
2023-03-26T09:27:27.525Z,39.38
2023-03-26T09:28:27.543Z,39.38
2023-03-26T09:29:27.582Z,45.00
2023-03-26T09:30:27.491Z,50.62
2023-03-26T09:31:27.549Z,39.38
2023-03-26T09:32:28.552Z,39.38
2023-03-26T09:33:27.480Z,45.00
2023-03-26T09:34:27.446Z,45.00
2023-03-26T09:35:27.468Z,39.38
2023-03-26T09:36:27.455Z,45.00
2023-03-26T09:37:27.422Z,45.00
2023-03-26T09:38:27.433Z,39.38
2023-03-26T09:39:27.411Z,33.75
2023-03-26T09:40:27.389Z,33.75
2023-03-26T09:41:27.398Z,39.38
2023-03-26T09:42:27.360Z,39.38
2023-03-26T09:43:27.339Z,39.38
2023-03-26T09:44:27.347Z,39.38
2023-03-26T09:45:27.370Z,39.38
2023-03-26T09:46:27.358Z,39.38
2023-03-26T09:47:27.336Z,33.75
2023-03-26T09:48:28.393Z,33.75
2023-03-26T09:49:27.276Z,33.75
2023-03-26T09:50:27.288Z,28.12
2023-03-26T09:51:27.822Z,28.12
2023-03-26T09:52:27.295Z,22.50
2023-03-26T09:53:27.298Z,22.50
2023-03-26T09:54:27.261Z,28.12
2023-03-26T09:55:27.221Z,28.12
2023-03-26T09:56:27.220Z,33.75
2023-03-26T09:57:27.294Z,39.38
2023-03-26T09:58:27.209Z,39.38
2023-03-26T09:59:27.238Z,45.00
2023-03-26T10:00:27.168Z,39.38
2023-03-26T10:01:27.293Z,39.38
2023-03-26T10:02:46.186Z,39.38
2023-03-26T10:03:28.218Z,39.38
2023-03-26T10:04:27.127Z,50.62
2023-03-26T10:05:27.141Z,56.25
2023-03-26T10:06:27.120Z,39.38
2023-03-26T10:07:27.162Z,50.62
2023-03-26T10:08:27.158Z,45.00
2023-03-26T10:09:27.046Z,56.25
2023-03-26T10:10:27.055Z,45.00
2023-03-26T10:11:27.053Z,50.62
2023-03-26T10:12:27.016Z,56.25
2023-03-26T10:13:27.065Z,56.25
2023-03-26T10:14:27.021Z,56.25
2023-03-26T10:15:26.996Z,50.62
2023-03-26T10:16:28.129Z,50.62
2023-03-26T10:17:27.023Z,50.62
2023-03-26T10:18:30.157Z,50.62
2023-03-26T10:19:26.964Z,45.00
2023-03-26T10:20:26.961Z,50.62
2023-03-26T10:21:28.464Z,50.62
2023-03-26T10:22:26.945Z,50.62
2023-03-26T10:23:26.918Z,50.62
2023-03-26T10:24:26.944Z,45.00
2023-03-26T10:25:26.914Z,45.00
2023-03-26T10:26:26.901Z,45.00
2023-03-26T10:27:26.872Z,45.00
2023-03-26T10:28:26.868Z,45.00
2023-03-26T10:29:27.871Z,45.00
2023-03-26T10:30:26.938Z,45.00
2023-03-26T10:31:26.871Z,45.00
2023-03-26T10:32:26.875Z,39.38
2023-03-26T10:33:26.802Z,45.00
2023-03-26T10:34:29.187Z,45.00
2023-03-26T10:35:26.862Z,39.38
2023-03-26T10:36:26.858Z,33.75
2023-03-26T10:37:26.785Z,33.75
2023-03-26T10:38:27.760Z,33.75
2023-03-26T10:39:37.837Z,28.12
2023-03-26T10:40:27.722Z,28.12
2023-03-26T10:41:26.735Z,28.12
2023-03-26T10:42:26.733Z,33.75
2023-03-26T10:43:26.723Z,33.75
2023-03-26T10:44:26.683Z,33.75
2023-03-26T10:45:26.737Z,39.38
2023-03-26T10:46:26.677Z,33.75
2023-03-26T10:47:26.690Z,33.75
2023-03-26T10:48:26.640Z,33.75
2023-03-26T10:49:26.659Z,33.75
2023-03-26T10:50:26.623Z,39.38
2023-03-26T10:51:27.632Z,39.38
2023-03-26T10:52:27.613Z,39.38
2023-03-26T10:53:26.634Z,45.00
2023-03-26T10:54:26.584Z,39.38
2023-03-26T10:55:26.563Z,39.38
2023-03-26T10:56:26.570Z,39.38
2023-03-26T10:57:26.591Z,39.38
2023-03-26T10:58:26.716Z,39.38
2023-03-26T10:59:27.049Z,39.38
2023-03-26T11:00:26.560Z,39.38
2023-03-26T11:01:26.525Z,39.38
2023-03-26T11:02:34.635Z,45.00
2023-03-26T11:03:26.461Z,45.00
2023-03-26T11:04:26.483Z,50.62
2023-03-26T11:05:26.508Z,45.00
2023-03-26T11:06:26.467Z,45.00
2023-03-26T11:07:26.422Z,39.38
2023-03-26T11:08:31.948Z,39.38
2023-03-26T11:09:27.442Z,39.38
2023-03-26T11:10:26.407Z,39.38
2023-03-26T11:11:26.394Z,39.38
2023-03-26T11:12:28.508Z,39.38
2023-03-26T11:13:26.404Z,39.38
2023-03-26T11:14:34.352Z,39.38
2023-03-26T11:15:27.411Z,33.75
2023-03-26T11:16:26.341Z,39.38
2023-03-26T11:17:40.245Z,33.75
2023-03-26T11:18:27.452Z,33.75
2023-03-26T11:19:26.325Z,33.75
2023-03-26T11:20:27.289Z,33.75
2023-03-26T11:21:26.277Z,33.75
2023-03-26T11:22:26.280Z,28.12
2023-03-26T11:23:26.288Z,28.12
2023-03-26T11:24:27.243Z,28.12
2023-03-26T11:25:26.229Z,28.12
2023-03-26T11:26:26.232Z,28.12
2023-03-26T11:27:26.520Z,22.50
2023-03-26T11:28:26.203Z,22.50
2023-03-26T11:29:32.558Z,22.50
2023-03-26T11:30:27.185Z,22.50
2023-03-26T11:31:26.175Z,22.50
2023-03-26T11:32:26.178Z,22.50
2023-03-26T11:33:26.178Z,28.12
2023-03-26T11:34:27.121Z,28.12
2023-03-26T11:35:40.731Z,28.12
2023-03-26T11:36:27.225Z,28.12
2023-03-26T11:37:26.145Z,28.12
2023-03-26T11:38:26.636Z,28.12
2023-03-26T11:39:26.133Z,28.12
2023-03-26T11:40:26.079Z,28.12
2023-03-26T11:41:26.086Z,28.12
2023-03-26T11:42:26.043Z,28.12
2023-03-26T11:43:26.034Z,28.12
2023-03-26T11:44:27.088Z,28.12
2023-03-26T11:45:26.054Z,28.12
2023-03-26T11:46:27.202Z,28.12
2023-03-26T11:47:26.019Z,28.12
2023-03-26T11:48:25.980Z,28.12
2023-03-26T11:49:25.990Z,22.50
2023-03-26T11:50:25.996Z,22.50
2023-03-26T11:51:25.971Z,22.50
2023-03-26T11:52:25.998Z,22.50
2023-03-26T11:53:26.915Z,22.50
2023-03-26T11:54:25.928Z,16.88
2023-03-26T11:55:25.936Z,16.88
2023-03-26T11:56:26.946Z,16.88
2023-03-26T11:57:25.983Z,16.88
2023-03-26T11:58:25.893Z,11.25
2023-03-26T11:59:25.890Z,11.25
2023-03-26T12:00:25.861Z,11.25
2023-03-26T12:01:25.832Z,11.25
2023-03-26T12:02:25.971Z,11.25
2023-03-26T12:03:25.848Z,11.25
2023-03-26T12:04:27.812Z,11.25
2023-03-26T12:05:25.801Z,11.25
2023-03-26T12:06:25.774Z,11.25
2023-03-26T12:07:25.831Z,11.25
2023-03-26T12:08:25.759Z,11.25
2023-03-26T12:09:25.761Z,16.88
2023-03-26T12:10:25.768Z,16.88
2023-03-26T12:11:25.724Z,16.88
2023-03-26T12:12:25.765Z,16.88
2023-03-26T12:13:26.702Z,16.88
2023-03-26T12:14:26.729Z,22.50
2023-03-26T12:15:25.761Z,22.50
2023-03-26T12:16:25.728Z,22.50
2023-03-26T12:17:31.305Z,22.50
2023-03-26T12:18:26.694Z,22.50
2023-03-26T12:19:25.656Z,22.50
2023-03-26T12:20:25.656Z,28.12
2023-03-26T12:21:25.632Z,28.12
2023-03-26T12:22:25.617Z,28.12
2023-03-26T12:23:25.636Z,33.75
2023-03-26T12:24:25.579Z,33.75
2023-03-26T12:25:25.692Z,33.75
2023-03-26T12:26:25.613Z,33.75
2023-03-26T12:27:25.556Z,33.75
2023-03-26T12:28:25.568Z,33.75
2023-03-26T12:29:25.509Z,33.75
2023-03-26T12:30:25.544Z,33.75
2023-03-26T12:31:25.554Z,28.12
2023-03-26T12:32:32.423Z,28.12
2023-03-26T12:33:26.554Z,28.12
2023-03-26T12:34:26.546Z,28.12
2023-03-26T12:35:25.460Z,22.50
2023-03-26T12:36:26.488Z,22.50
2023-03-26T12:37:25.444Z,16.88
2023-03-26T12:38:26.443Z,16.88
2023-03-26T12:40:10.556Z,11.25
2023-03-26T12:40:26.428Z,11.25
2023-03-26T12:44:43.535Z,11.25
2023-03-26T12:44:46.164Z,11.25
2023-03-26T12:44:50.230Z,11.25
2023-03-26T12:44:54.890Z,11.25
2023-03-26T12:45:26.354Z,11.25
2023-03-26T12:47:57.291Z,11.25
2023-03-26T12:47:58.657Z,11.25
2023-03-26T12:48:26.368Z,11.25
2023-03-26T12:49:25.367Z,11.25
2023-03-26T12:50:34.275Z,11.25
2023-03-26T12:51:26.280Z,11.25
2023-03-26T12:52:25.281Z,11.25
2023-03-26T12:53:25.258Z,11.25
2023-03-26T12:54:25.244Z,11.25
2023-03-26T12:55:26.265Z,16.88
2023-03-26T12:56:25.240Z,16.88
2023-03-26T12:57:25.282Z,16.88
2023-03-26T12:58:25.245Z,22.50
2023-03-26T12:59:25.189Z,22.50
2023-03-26T13:00:25.209Z,22.50
2023-03-26T13:01:25.286Z,28.12
2023-03-26T13:02:25.259Z,28.12
2023-03-26T13:03:26.182Z,28.12
2023-03-26T13:04:26.136Z,28.12
2023-03-26T13:05:25.137Z,28.12